Weather History for Hope, BC

Change the Weather History Date:

Sunday, November 25, 2012

  Actual Average Record
Temperature  
Mean Temperature 38 °F -  
Max Temperature 43 °F 40 °F 50 °F (2004)
Min Temperature 33 °F 31 °F 21 °F (2010)
Degree Days  
Heating Degree Days 27    
Moisture  
Dew Point 38 °F    
Average Humidity 90    
Maximum Humidity 100    
Minimum Humidity 85    
Precipitation  
Precipitation 0.00 in 0.37 in - ()
Sea Level Pressure  
Sea Level Pressure 30.32 in    
Wind  
Wind Speed 5 mph ()    
Max Wind Speed 12 mph    
Max Gust Speed -    
Visibility 7.7 miles    
Events Rain    
Averages and records for this station are not official NWS values.
T = Trace of Precipitation, MM = Missing Value Source: Averaged Metar Reports

Daily Weather History Graph

Daily Weather History Graph

Search for Another Location

Airport:

Trip Planner

Search our weather history database for the weather conditions in past years. The results will help you decide how hot, cold, wet, or windy it might be!

Date:

Astronomy

Nov. 25, 2012 Rise Set
Actual Time 7:32 AM PST 4:13 PM PST
Civil Twilight 6:56 AM PST 4:49 PM PST
Nautical Twilight 6:16 AM PST 5:29 PM PST
Astronomical Twilight 5:38 AM PST 6:07 PM PST
Moon 2:41 PM PST (11/25) 4:41 AM PST (11/25)
Length of Visible Light 9h 52m
Length of Day
8h 40m
Waxing Gibbous, 93% of the Moon is Illuminated
Nov 25
Waxing Gibbous
Nov 28
Full
Dec 6
Last Quarter
Dec 13
New
Dec 19
First Quarter

Hourly Weather History & Observations

Time (PST) Temp. Windchill Dew Point Humidity Pressure Visibility Wind Dir Wind Speed Gust Speed Precip Events Conditions
12:00 AM 42.8 °F 40.1 °F 39.2 °F 87% 30.26 in 9.0 mi Variable 4.6 mph - N/A   Overcast
12:15 AM 42.8 °F 38.6 °F 39.2 °F 87% 30.26 in 9.0 mi West 6.9 mph - N/A   Overcast
12:21 AM 42.8 °F 39.3 °F 39.2 °F 87% 30.27 in 9.0 mi West 5.8 mph - N/A   Overcast
1:00 AM 42 °F - 39 °F 85% 30.27 in - WSW 5.8 mph - -  
1:00 AM 42.8 °F 38.6 °F 39.2 °F 87% 30.27 in 9.0 mi West 6.9 mph - N/A   Overcast
1:08 AM 42.8 °F 40.1 °F 39.2 °F 87% 30.27 in 9.0 mi WSW 4.6 mph - N/A   Overcast
1:10 AM 42.8 °F 39.3 °F 39.2 °F 87% 30.27 in 9.0 mi Variable 5.8 mph - N/A   Overcast
1:15 AM 42.8 °F 41.1 °F 39.2 °F 87% 30.27 in 9.0 mi Variable 3.5 mph - N/A   Overcast
1:17 AM 42.8 °F 39.3 °F 39.2 °F 87% 30.27 in 9.0 mi West 5.8 mph - N/A   Overcast
1:22 AM 42.8 °F 39.3 °F 39.2 °F 87% 30.27 in 9.0 mi WSW 5.8 mph - N/A   Overcast
1:23 AM 42.8 °F 39.3 °F 39.2 °F 87% 30.27 in 9.0 mi WSW 5.8 mph - N/A   Overcast
1:25 AM 42.8 °F 38.6 °F 39.2 °F 87% 30.27 in 9.0 mi West 6.9 mph - N/A   Overcast
1:32 AM 42.8 °F 40.1 °F 39.2 °F 87% 30.28 in 9.0 mi WNW 4.6 mph - N/A   Overcast
1:33 AM 42.8 °F 41.1 °F 39.2 °F 87% 30.28 in 9.0 mi West 3.5 mph - N/A   Overcast
1:37 AM 42.8 °F 38.6 °F 39.2 °F 87% 30.28 in 9.0 mi WSW 6.9 mph - N/A   Overcast
1:38 AM 41.0 °F 37.1 °F 39.2 °F 93% 30.28 in 9.0 mi WSW 5.8 mph - N/A   Overcast
1:40 AM 42.8 °F 40.1 °F 39.2 °F 87% 30.28 in 9.0 mi WSW 4.6 mph - N/A   Overcast
2:00 AM 42.8 °F 40.1 °F 39.2 °F 87% 30.28 in 9.0 mi SW 4.6 mph - N/A   Overcast
3:00 AM 41.0 °F 35.8 °F 37.4 °F 87% 30.29 in 9.0 mi West 8.1 mph - N/A   Overcast
4:00 AM 41 °F - 38 °F 86% 30.30 in - WSW 6.9 mph - -  
4:00 AM 41.0 °F 35.8 °F 39.2 °F 93% 30.30 in 9.0 mi West 8.1 mph - N/A   Overcast
4:02 AM 41.0 °F 35.2 °F 39.2 °F 93% 30.30 in 9.0 mi West 9.2 mph - N/A   Overcast
4:03 AM 41.0 °F 35.2 °F 39.2 °F 93% 30.30 in 9.0 mi West 9.2 mph - N/A   Overcast
4:06 AM 41.0 °F 35.8 °F 37.4 °F 87% 30.30 in 9.0 mi West 8.1 mph - N/A   Overcast
4:26 AM 41.0 °F 35.8 °F 37.4 °F 87% 30.31 in 8.0 mi West 8.1 mph - N/A   Overcast
5:00 AM 41.0 °F 36.4 °F 37.4 °F 87% 30.31 in 8.0 mi WSW 6.9 mph - N/A   Overcast
5:02 AM 41.0 °F 36.4 °F 37.4 °F 87% 30.31 in 8.0 mi West 6.9 mph - N/A   Overcast
5:07 AM 41.0 °F 36.4 °F 37.4 °F 87% 30.31 in 8.0 mi WSW 6.9 mph - N/A   Overcast
5:14 AM 41.0 °F 36.4 °F 37.4 °F 87% 30.31 in 8.0 mi WSW 6.9 mph - N/A   Overcast
5:42 AM 41.0 °F 37.1 °F 37.4 °F 87% 30.31 in 7.0 mi SW 5.8 mph - N/A   Overcast
6:00 AM 41.0 °F 38.0 °F 37.4 °F 87% 30.31 in 6.0 mi WSW 4.6 mph - N/A   Overcast
6:26 AM 41.0 °F 37.1 °F 37.4 °F 87% 30.32 in 6.0 mi SW 5.8 mph - N/A   Overcast
6:28 AM 41.0 °F 37.1 °F 37.4 °F 87% 30.32 in 6.0 mi SW 5.8 mph - N/A   Overcast
6:43 AM 39.2 °F 35.9 °F 37.4 °F 93% 30.32 in 5.0 mi SW 4.6 mph - N/A   Overcast
7:00 AM 39 °F - 38 °F 93% 30.32 in - SW 3.5 mph - -  
7:00 AM 39.2 °F 35.9 °F 37.4 °F 93% 30.32 in 5.0 mi SW 4.6 mph - N/A   Overcast
7:08 AM 39.2 °F 37.0 °F 37.4 °F 93% 30.32 in 4.0 mi WSW 3.5 mph - N/A   Overcast
7:09 AM 39.2 °F - 37.4 °F 93% 30.32 in 4.0 mi SW 2.3 mph - N/A   Overcast
7:11 AM 39.2 °F - 37.4 °F 93% 30.32 in 4.0 mi SW 2.3 mph - N/A   Overcast
7:20 AM 39.2 °F 37.0 °F 37.4 °F 93% 30.32 in 4.0 mi WSW 3.5 mph - N/A   Overcast
8:00 AM 39.2 °F 37.0 °F 37.4 °F 93% 30.34 in 3.0 mi ESE 3.5 mph - N/A   Overcast
9:00 AM 41.0 °F - 39.2 °F 93% 30.35 in 5.0 mi Calm Calm - N/A   Overcast
9:03 AM 41.0 °F - 39.2 °F 93% 30.36 in 6.0 mi Calm Calm - N/A   Overcast
9:34 AM 41.0 °F 39.0 °F 39.2 °F 93% 30.37 in 7.0 mi East 3.5 mph - N/A Rain Light Rain
9:52 AM 41.0 °F 38.0 °F 39.2 °F 93% 30.37 in 7.0 mi East 4.6 mph - N/A   Mostly Cloudy
10:00 AM 41 °F - 39 °F 92% 30.37 in - East 3.5 mph - -  
10:00 AM 41.0 °F 38.0 °F 39.2 °F 93% 30.37 in 7.0 mi ESE 4.6 mph - N/A   Mostly Cloudy
11:00 AM 42.8 °F 41.1 °F 39.2 °F 87% 30.37 in 9.0 mi SE 3.5 mph - N/A   Clear
12:00 PM 42.8 °F - 39.2 °F 87% 30.37 in 9.0 mi Variable 2.3 mph - N/A   Clear
1:00 PM 42 °F - 39 °F 86% 30.35 in - WSW 2.3 mph - -  
1:00 PM 42.8 °F - 39.2 °F 87% 30.36 in 9.0 mi WSW 2.3 mph - N/A   Partly Cloudy
2:00 PM 41.0 °F - 39.2 °F 93% 30.35 in 9.0 mi Calm Calm - N/A   Partly Cloudy
3:00 PM 39.2 °F - 37.4 °F 93% 30.35 in 9.0 mi Variable 2.3 mph - N/A   Scattered Clouds
3:58 PM 37.4 °F 33.8 °F 35.6 °F 93% 30.35 in 5.0 mi East 4.6 mph - N/A   Clear
4:00 PM 37 °F - 36 °F 95% 30.35 in - East 4.6 mph - -  
4:00 PM 37.4 °F 33.8 °F 37.4 °F 100% 30.36 in 5.0 mi East 4.6 mph - N/A   Clear
4:01 PM 37.4 °F 33.8 °F 37.4 °F 100% 30.36 in 6.0 mi East 4.6 mph - N/A   Clear
5:00 PM 39.2 °F 34.2 °F 37.4 °F 93% 30.37 in 9.0 mi East 6.9 mph - N/A   Clear
6:00 PM 37.4 °F 32.8 °F 35.6 °F 93% 30.37 in 9.0 mi ENE 5.8 mph - N/A   Partly Cloudy
7:00 PM 36 °F - 35 °F 92% 30.36 in - ENE 5.8 mph - -  
7:00 PM 37.4 °F 32.8 °F 35.6 °F 93% 30.36 in 9.0 mi ENE 5.8 mph - N/A   Clear
8:00 PM 35.6 °F 27.5 °F 33.8 °F 93% 30.36 in 9.0 mi ESE 11.5 mph - N/A   Clear
9:00 PM 35.6 °F 29.2 °F 33.8 °F 93% 30.36 in 9.0 mi East 8.1 mph - N/A   Clear
10:00 PM 35 °F - 33 °F 91% 30.35 in - East 10.4 mph - -  
10:00 PM 33.8 °F 25.8 °F 33.8 °F 100% 30.35 in 9.0 mi East 10.4 mph - N/A   Clear
11:00 PM 35.6 °F 27.5 °F 33.8 °F 93% 30.34 in 9.0 mi East 11.5 mph - N/A   Clear